Time;durP1;ratioP1;P1;durP2;ratioP2;P2;SDS_P1;SDS_P2;PMS_P1;PMS_P2;Temp;Humidity;BMP_temperature;BMP_pressure;BME280_temperature;BME280_humidity;BME280_pressure;Samples;Min_cycle;Max_cycle;Signal;HPM_P1;HPM_P2
2022/07/23 00:00:20;;;;;;;1.05;0.40;;;15.10;99.90;;;;;;5042382;28;20060;-73
2022/07/23 00:02:46;;;;;;;1.27;0.60;;;15.10;99.90;;;;;;5040381;28;20487;-73
2022/07/23 00:05:12;;;;;;;1.17;0.50;;;15.00;99.90;;;;;;5043259;28;20037;-73
2022/07/23 00:07:38;;;;;;;0.77;0.47;;;15.00;99.90;;;;;;5038324;28;20174;-74
2022/07/23 00:10:05;;;;;;;1.38;0.57;;;14.90;99.90;;;;;;5041073;28;20044;-74
2022/07/23 00:12:31;;;;;;;1.15;0.57;;;14.90;99.90;;;;;;5039511;28;20040;-74
2022/07/23 00:14:56;;;;;;;1.20;0.60;;;14.90;99.90;;;;;;5040044;28;20555;-73
2022/07/23 00:17:22;;;;;;;0.68;0.40;;;14.90;99.90;;;;;;5040725;28;20049;-74
2022/07/23 00:19:48;;;;;;;0.32;0.22;;;14.80;99.90;;;;;;5024393;28;20033;-73
2022/07/23 00:22:13;;;;;;;1.00;0.38;;;14.80;99.90;;;;;;5022926;28;20052;-74
2022/07/23 00:24:39;;;;;;;0.80;0.45;;;14.70;99.90;;;;;;5036678;28;20035;-74
2022/07/23 00:27:05;;;;;;;1.55;0.50;;;14.70;99.90;;;;;;5036962;28;20085;-74
2022/07/23 00:29:30;;;;;;;0.93;0.40;;;14.70;99.90;;;;;;5039681;28;20119;-73
2022/07/23 00:31:56;;;;;;;1.00;0.50;;;14.70;99.90;;;;;;5043767;28;20498;-74
2022/07/23 00:34:22;;;;;;;1.05;0.45;;;14.70;99.90;;;;;;5040461;28;20151;-73
2022/07/23 00:36:47;;;;;;;1.80;0.60;;;14.70;99.90;;;;;;5040862;28;20037;-74
2022/07/23 00:39:13;;;;;;;0.93;0.30;;;14.60;99.90;;;;;;5035622;28;20047;-74
2022/07/23 00:41:38;;;;;;;0.98;0.55;;;14.60;99.90;;;;;;5042406;28;20546;-74
2022/07/23 00:44:28;;;;;;;1.00;0.60;;;14.60;99.90;;;;;;5019840;28;20040;-74
2022/07/23 00:46:55;;;;;;;1.80;0.50;;;14.60;99.90;;;;;;5055660;28;20391;-74
2022/07/23 00:49:22;;;;;;;0.90;0.30;;;14.50;99.90;;;;;;5038987;28;20458;-74
2022/07/23 00:51:49;;;;;;;0.70;0.43;;;14.50;99.90;;;;;;5055214;28;20593;-74
2022/07/23 00:54:16;;;;;;;0.47;0.30;;;14.50;99.90;;;;;;5014153;28;20041;-73
2022/07/23 00:56:44;;;;;;;0.80;0.40;;;14.40;99.90;;;;;;5039540;28;20047;-73
2022/07/23 00:59:10;;;;;;;1.08;0.35;;;14.40;99.90;;;;;;5039843;28;21601;-73
2022/07/23 01:01:36;;;;;;;0.70;0.40;;;14.40;99.90;;;;;;5039443;28;20040;-74
2022/07/23 01:04:02;;;;;;;0.20;0.20;;;14.40;99.90;;;;;;5037884;28;20042;-73
2022/07/23 01:06:27;;;;;;;0.30;0.13;;;14.40;99.90;;;;;;5039830;28;20044;-74
2022/07/23 01:08:54;;;;;;;0.30;0.20;;;14.30;99.90;;;;;;5044168;28;20041;-74
2022/07/23 01:11:20;;;;;;;0.30;0.20;;;14.30;99.90;;;;;;5039647;28;20044;-73
2022/07/23 01:13:47;;;;;;;0.10;0.10;;;14.20;99.90;;;;;;5034666;28;20056;-73
2022/07/23 01:16:12;;;;;;;0.22;0.10;;;14.10;99.90;;;;;;5041104;28;20729;-73
2022/07/23 01:18:38;;;;;;;0.40;0.20;;;14.10;99.90;;;;;;5039839;28;20041;-73
2022/07/23 01:21:04;;;;;;;0.35;0.20;;;14.00;99.90;;;;;;5038903;28;20249;-73
2022/07/23 01:23:29;;;;;;;0.55;0.22;;;14.00;99.90;;;;;;5037695;28;20030;-73
2022/07/23 01:25:55;;;;;;;0.40;0.20;;;14.00;99.90;;;;;;5038555;28;20483;-73
2022/07/23 01:28:21;;;;;;;0.57;0.30;;;13.90;99.90;;;;;;5036895;28;20481;-73
2022/07/23 01:30:47;;;;;;;0.43;0.28;;;13.90;99.90;;;;;;5039707;28;20033;-73
2022/07/23 01:33:13;;;;;;;0.40;0.20;;;13.90;99.90;;;;;;5038529;28;20125;-73
2022/07/23 01:35:39;;;;;;;0.80;0.43;;;13.90;99.90;;;;;;5039692;28;20033;-73
2022/07/23 01:38:05;;;;;;;0.65;0.30;;;13.90;99.90;;;;;;5039344;28;20071;-73
2022/07/23 01:40:30;;;;;;;3.33;0.30;;;13.90;99.90;;;;;;5037012;28;20726;-74
2022/07/23 01:42:56;;;;;;;0.77;0.43;;;13.80;99.90;;;;;;5039877;28;20041;-73
2022/07/23 01:45:21;;;;;;;0.75;0.30;;;13.70;99.90;;;;;;5036671;28;20056;-73
2022/07/23 01:47:47;;;;;;;0.60;0.40;;;13.70;99.90;;;;;;5038271;28;20037;-74
2022/07/23 01:50:13;;;;;;;0.90;0.30;;;13.60;99.90;;;;;;5040527;28;20043;-73
2022/07/23 01:52:39;;;;;;;0.93;0.50;;;13.60;99.90;;;;;;5038791;28;20136;-73
2022/07/23 01:55:05;;;;;;;1.05;0.50;;;13.60;99.90;;;;;;5041301;28;20573;-73
2022/07/23 01:57:31;;;;;;;1.33;0.60;;;13.60;99.90;;;;;;5044233;28;20043;-73
2022/07/23 01:59:57;;;;;;;0.68;0.43;;;13.60;99.90;;;;;;5025141;28;20091;-73
2022/07/23 02:02:23;;;;;;;1.10;0.50;;;13.50;99.90;;;;;;5043326;28;20037;-73
2022/07/23 02:04:48;;;;;;;1.88;0.60;;;13.50;99.90;;;;;;5041337;28;20060;-73
2022/07/23 02:07:14;;;;;;;0.60;0.30;;;13.50;99.90;;;;;;5042863;28;20481;-74
2022/07/23 02:09:39;;;;;;;0.88;0.43;;;13.40;99.90;;;;;;5043209;28;20127;-73
2022/07/23 02:12:05;;;;;;;0.30;0.20;;;13.30;99.90;;;;;;5042427;28;20045;-73
2022/07/23 02:14:31;;;;;;;0.30;0.20;;;13.30;99.90;;;;;;5027006;28;20469;-73
2022/07/23 02:16:56;;;;;;;0.80;0.40;;;13.30;99.90;;;;;;5042726;28;20132;-73
2022/07/23 02:19:22;;;;;;;1.60;0.73;;;13.20;99.90;;;;;;5040321;28;20550;-73
2022/07/23 02:21:48;;;;;;;0.93;0.35;;;13.20;99.90;;;;;;5043254;28;20029;-73
2022/07/23 02:24:16;;;;;;;1.90;0.65;;;13.20;99.90;;;;;;5024938;28;20161;-73
2022/07/23 02:26:42;;;;;;;0.55;0.30;;;13.30;99.90;;;;;;5045600;28;20056;-73
2022/07/23 02:29:07;;;;;;;2.00;0.70;;;13.30;99.90;;;;;;5041026;28;20033;-74
2022/07/23 02:31:33;;;;;;;1.27;0.60;;;13.20;99.90;;;;;;5026696;28;20541;-73
2022/07/23 02:33:59;;;;;;;1.30;0.60;;;13.20;99.90;;;;;;5043493;28;20045;-73
2022/07/23 02:36:25;;;;;;;0.68;0.47;;;13.20;99.90;;;;;;5042650;28;20461;-74
2022/07/23 02:38:51;;;;;;;0.43;0.28;;;13.20;99.90;;;;;;5039768;28;20523;-74
2022/07/23 02:41:16;;;;;;;0.85;0.20;;;13.10;99.90;;;;;;5014209;28;20120;-74
2022/07/23 02:43:42;;;;;;;0.98;0.30;;;13.00;99.90;;;;;;5042654;28;20453;-74
2022/07/23 02:46:08;;;;;;;0.55;0.30;;;13.00;99.90;;;;;;5040550;28;20115;-73
2022/07/23 02:48:33;;;;;;;0.45;0.32;;;13.00;99.90;;;;;;5042138;28;20036;-73
2022/07/23 02:50:59;;;;;;;0.82;0.45;;;13.00;99.90;;;;;;5041888;28;20045;-73
2022/07/23 02:53:24;;;;;;;1.17;0.60;;;13.00;99.90;;;;;;5041355;28;20051;-73
2022/07/23 02:55:50;;;;;;;0.90;0.35;;;12.90;99.90;;;;;;5043098;28;20036;-74
2022/07/23 02:58:16;;;;;;;0.75;0.38;;;12.90;99.90;;;;;;5037246;28;20585;-74
2022/07/23 03:00:41;;;;;;;0.15;0.10;;;12.90;99.90;;;;;;5046808;28;20037;-73
2022/07/23 03:03:08;;;;;;;0.25;0.20;;;12.90;99.90;;;;;;5041991;28;20440;-73
2022/07/23 03:05:34;;;;;;;0.80;0.40;;;12.80;99.90;;;;;;5042311;28;20068;-73
2022/07/23 03:07:59;;;;;;;0.85;0.40;;;12.80;99.90;;;;;;5040011;28;20039;-73
2022/07/23 03:10:25;;;;;;;0.68;0.40;;;12.80;99.90;;;;;;5042942;28;20033;-73
2022/07/23 03:12:51;;;;;;;3.13;0.40;;;12.80;99.90;;;;;;5041527;28;20047;-73
2022/07/23 03:15:17;;;;;;;0.75;0.45;;;12.80;99.90;;;;;;5026713;28;20049;-74
2022/07/23 03:17:43;;;;;;;1.42;0.65;;;12.80;99.90;;;;;;5039622;28;20045;-73
2022/07/23 03:20:09;;;;;;;0.90;0.50;;;12.80;99.90;;;;;;5057133;28;20044;-73
2022/07/23 03:22:35;;;;;;;0.20;0.20;;;12.70;99.90;;;;;;5030500;28;20052;-73
2022/07/23 03:25:00;;;;;;;0.50;0.20;;;12.70;99.90;;;;;;5041585;28;20033;-73
2022/07/23 03:27:29;;;;;;;0.93;0.43;;;12.70;99.90;;;;;;5041869;28;20048;-73
2022/07/23 03:29:56;;;;;;;0.75;0.40;;;12.70;99.90;;;;;;5057599;28;20045;-73
2022/07/23 03:32:23;;;;;;;0.38;0.20;;;12.70;99.90;;;;;;5055938;28;20044;-73
2022/07/23 03:34:49;;;;;;;0.30;0.15;;;12.60;99.90;;;;;;5038807;28;20076;-73
2022/07/23 03:37:15;;;;;;;0.52;0.25;;;12.50;99.90;;;;;;5041508;28;20075;-73
2022/07/23 03:39:41;;;;;;;0.60;0.30;;;12.50;99.90;;;;;;5037590;28;20033;-73
2022/07/23 03:42:07;;;;;;;1.50;0.73;;;12.50;99.90;;;;;;5042622;28;20048;-73
2022/07/23 03:44:33;;;;;;;1.58;0.50;;;12.40;99.90;;;;;;5040099;28;20483;-73
2022/07/23 03:46:59;;;;;;;0.73;0.28;;;12.50;99.90;;;;;;5024790;28;20041;-73
2022/07/23 03:49:25;;;;;;;3.60;0.70;;;12.50;99.90;;;;;;5039665;28;20371;-73
2022/07/23 03:51:51;;;;;;;1.08;0.40;;;12.50;99.90;;;;;;5020684;28;20765;-73
2022/07/23 03:54:16;;;;;;;0.85;0.38;;;12.60;99.90;;;;;;5039028;28;20563;-73
2022/07/23 03:56:42;;;;;;;0.40;0.20;;;12.50;99.90;;;;;;5040945;28;20047;-73
2022/07/23 03:59:09;;;;;;;1.00;0.20;;;12.50;99.90;;;;;;5042207;28;20040;-73
2022/07/23 04:01:35;;;;;;;1.33;0.30;;;12.50;99.90;;;;;;5023025;28;20065;-73
2022/07/23 04:04:01;;;;;;;0.80;0.30;;;12.40;99.90;;;;;;5040612;28;20799;-73
2022/07/23 04:06:26;;;;;;;0.35;0.20;;;12.40;99.90;;;;;;5040051;28;20044;-73
2022/07/23 04:08:52;;;;;;;0.43;0.20;;;12.40;99.90;;;;;;5038756;28;20036;-73
2022/07/23 04:11:18;;;;;;;0.40;0.20;;;12.30;99.90;;;;;;5041108;28;20124;-73
2022/07/23 04:13:43;;;;;;;0.88;0.38;;;12.30;99.90;;;;;;5057163;28;20053;-73
2022/07/23 04:16:09;;;;;;;1.00;0.45;;;12.30;99.90;;;;;;5040335;28;20502;-73
2022/07/23 04:18:34;;;;;;;1.35;0.50;;;12.20;99.90;;;;;;5039592;28;20051;-73
2022/07/23 04:21:00;;;;;;;1.05;0.45;;;12.20;99.90;;;;;;5039282;28;20033;-73
2022/07/23 04:23:26;;;;;;;0.65;0.43;;;12.20;99.90;;;;;;5040735;28;20406;-73
2022/07/23 04:25:51;;;;;;;1.48;0.70;;;12.20;99.90;;;;;;5039818;28;20529;-73
2022/07/23 04:28:17;;;;;;;0.95;0.40;;;12.20;99.90;;;;;;5042826;28;20045;-73
2022/07/23 04:30:43;;;;;;;1.05;0.52;;;12.30;99.90;;;;;;5055701;28;20048;-73
2022/07/23 04:33:08;;;;;;;2.53;0.80;;;12.40;99.90;;;;;;5040887;28;20465;-73
2022/07/23 04:35:35;;;;;;;2.10;1.00;;;12.50;99.90;;;;;;5038639;28;20045;-73
2022/07/23 04:38:01;;;;;;;2.67;0.80;;;12.60;99.90;;;;;;5036507;28;20040;-73
2022/07/23 04:40:27;;;;;;;2.03;0.73;;;12.70;99.90;;;;;;5035735;28;20375;-73
2022/07/23 04:42:53;;;;;;;1.95;0.80;;;12.70;99.90;;;;;;5040530;28;20040;-73
2022/07/23 04:45:18;;;;;;;2.88;1.13;;;12.80;99.90;;;;;;5038908;28;20045;-73
2022/07/23 04:47:44;;;;;;;0.90;0.60;;;12.80;99.90;;;;;;5038843;28;20076;-73
2022/07/23 04:50:10;;;;;;;1.40;0.68;;;12.90;99.90;;;;;;5051422;28;20112;-73
2022/07/23 04:52:36;;;;;;;1.35;0.70;;;13.00;99.90;;;;;;5020446;28;20132;-73
2022/07/23 04:55:02;;;;;;;2.13;0.70;;;13.00;99.90;;;;;;5041215;28;20075;-73
2022/07/23 04:57:27;;;;;;;1.23;0.70;;;13.10;99.90;;;;;;5038168;28;20489;-73
2022/07/23 04:59:53;;;;;;;2.53;1.02;;;13.20;99.90;;;;;;5039306;28;20048;-73
2022/07/23 05:02:19;;;;;;;4.32;1.60;;;13.20;99.90;;;;;;5024137;28;20033;-74
2022/07/23 05:04:44;;;;;;;2.85;1.00;;;13.20;99.90;;;;;;5055854;28;20036;-73
2022/07/23 05:07:10;;;;;;;1.98;1.05;;;13.30;99.90;;;;;;5038487;28;20534;-73
2022/07/23 05:09:35;;;;;;;3.40;0.90;;;13.30;99.90;;;;;;5037683;28;20063;-73
2022/07/23 05:12:01;;;;;;;1.65;0.80;;;13.40;99.90;;;;;;5039487;28;20039;-73
2022/07/23 05:14:27;;;;;;;1.30;0.70;;;13.40;99.90;;;;;;5038970;28;20048;-73
2022/07/23 05:16:53;;;;;;;1.83;1.00;;;13.40;99.90;;;;;;5041021;28;20044;-73
2022/07/23 05:19:19;;;;;;;2.72;1.55;;;13.50;99.90;;;;;;5040448;28;20037;-73
2022/07/23 05:21:45;;;;;;;4.07;1.15;;;13.50;99.90;;;;;;5019091;28;20045;-73
2022/07/23 05:24:10;;;;;;;2.22;0.93;;;13.50;99.90;;;;;;5035834;28;20029;-73
2022/07/23 05:26:36;;;;;;;2.40;1.05;;;13.60;99.90;;;;;;5038201;28;20171;-73
2022/07/23 05:29:01;;;;;;;3.45;1.13;;;13.60;99.90;;;;;;5039807;28;20033;-74
2022/07/23 05:31:27;;;;;;;2.25;1.02;;;13.60;99.90;;;;;;5039580;28;20037;-73
2022/07/23 05:33:53;;;;;;;2.13;1.00;;;13.60;99.90;;;;;;5037877;28;20033;-73
2022/07/23 05:36:18;;;;;;;3.42;1.00;;;13.70;99.90;;;;;;5036684;28;20033;-74
2022/07/23 05:38:44;;;;;;;2.33;1.05;;;13.70;99.90;;;;;;5038189;28;20094;-74
2022/07/23 05:41:09;;;;;;;1.85;0.90;;;13.70;99.90;;;;;;5039596;28;20041;-73
2022/07/23 05:43:35;;;;;;;2.15;1.15;;;13.80;99.90;;;;;;5038759;28;20049;-73
2022/07/23 05:46:01;;;;;;;2.05;1.20;;;13.80;99.90;;;;;;5039955;28;20040;-74
2022/07/23 05:48:26;;;;;;;2.72;1.08;;;13.80;99.90;;;;;;5037502;28;20178;-74
2022/07/23 05:50:52;;;;;;;3.05;1.20;;;13.80;99.90;;;;;;5039254;28;20399;-74
2022/07/23 05:53:18;;;;;;;2.65;1.13;;;13.90;99.90;;;;;;5037675;28;20049;-73
2022/07/23 05:55:43;;;;;;;4.25;1.63;;;14.00;99.90;;;;;;5040564;28;20045;-73
2022/07/23 05:58:09;;;;;;;1.92;1.00;;;14.00;99.90;;;;;;5042012;28;20033;-74
2022/07/23 06:00:35;;;;;;;2.08;0.93;;;14.00;99.90;;;;;;5040761;28;20072;-74
2022/07/23 06:03:00;;;;;;;2.90;1.10;;;14.10;99.90;;;;;;5036166;28;20033;-73
2022/07/23 06:05:26;;;;;;;2.50;1.40;;;14.10;99.90;;;;;;5039686;28;20531;-74
2022/07/23 06:07:53;;;;;;;2.55;1.00;;;14.10;99.90;;;;;;5020107;28;20036;-73
2022/07/23 06:10:19;;;;;;;2.35;1.20;;;14.20;99.90;;;;;;5040048;28;20056;-73
2022/07/23 06:12:44;;;;;;;2.00;1.00;;;14.30;99.90;;;;;;5051274;28;20041;-74
2022/07/23 06:15:10;;;;;;;2.08;1.13;;;14.30;99.90;;;;;;5039259;28;20071;-73
2022/07/23 06:17:38;;;;;;;1.85;0.90;;;14.50;99.90;;;;;;5037298;28;21490;-74
2022/07/23 06:20:08;;;;;;;2.05;0.95;;;14.60;99.90;;;;;;5035301;28;20116;-73
2022/07/23 06:22:34;;;;;;;2.22;1.02;;;14.60;99.90;;;;;;5033223;28;20069;-73
2022/07/23 06:24:59;;;;;;;1.73;0.82;;;14.70;99.90;;;;;;5038610;28;20060;-75
2022/07/23 06:27:25;;;;;;;2.30;1.10;;;14.70;99.90;;;;;;5034540;28;20041;-73
2022/07/23 06:29:51;;;;;;;3.47;1.35;;;14.70;99.90;;;;;;5031793;28;20462;-73
2022/07/23 06:32:16;;;;;;;2.97;1.45;;;14.70;99.90;;;;;;5022644;28;20084;-73
2022/07/23 06:34:42;;;;;;;1.42;0.68;;;14.70;99.90;;;;;;5035304;28;20076;-74
2022/07/23 06:37:07;;;;;;;1.95;0.90;;;15.10;99.90;;;;;;5039338;28;20467;-74
2022/07/23 06:39:33;;;;;;;1.60;0.80;;;15.80;99.90;;;;;;5037945;28;20037;-72
2022/07/23 06:42:00;;;;;;;0.77;0.57;;;16.90;99.90;;;;;;5024689;28;20036;-73
2022/07/23 06:44:27;;;;;;;1.42;0.90;;;18.10;99.90;;;;;;5041162;28;20443;-74
2022/07/23 06:46:52;;;;;;;3.03;0.85;;;19.10;99.90;;;;;;5042720;28;22365;-74
2022/07/23 06:49:18;;;;;;;3.10;0.70;;;20.00;99.80;;;;;;5033148;28;20037;-74
2022/07/23 06:51:45;;;;;;;1.25;0.50;;;20.90;98.90;;;;;;5041361;28;20048;-74
2022/07/23 06:54:10;;;;;;;1.52;0.43;;;21.40;97.60;;;;;;5038249;28;20082;-75
2022/07/23 06:56:36;;;;;;;1.48;0.45;;;21.70;96.90;;;;;;5037155;28;20040;-80
2022/07/23 06:59:02;;;;;;;1.65;0.55;;;21.50;96.90;;;;;;5034977;28;20037;-74
2022/07/23 07:01:28;;;;;;;1.23;0.50;;;20.90;98.30;;;;;;5039141;28;20029;-73
2022/07/23 07:03:53;;;;;;;0.77;0.40;;;20.40;99.60;;;;;;5039382;28;20033;-74
2022/07/23 07:06:19;;;;;;;0.70;0.30;;;20.10;99.90;;;;;;5055698;28;20877;-74
2022/07/23 07:08:44;;;;;;;0.70;0.40;;;19.70;99.70;;;;;;5040372;28;20037;-74
2022/07/23 07:11:10;;;;;;;1.58;0.20;;;19.20;99.90;;;;;;5027212;28;20479;-74
2022/07/23 07:13:37;;;;;;;1.25;0.30;;;18.80;99.90;;;;;;5043038;28;20057;-74
2022/07/23 07:16:03;;;;;;;0.22;0.20;;;18.50;99.90;;;;;;5042779;28;20051;-74
2022/07/23 07:18:29;;;;;;;0.88;0.32;;;18.20;99.90;;;;;;5039974;28;20034;-74
2022/07/23 07:20:54;;;;;;;0.52;0.28;;;17.90;99.90;;;;;;5026158;28;20040;-74
2022/07/23 07:23:20;;;;;;;1.55;0.30;;;17.80;99.90;;;;;;5045294;28;20115;-74
2022/07/23 07:25:46;;;;;;;0.60;0.20;;;17.70;99.90;;;;;;5028210;28;20033;-74
2022/07/23 07:28:13;;;;;;;0.68;0.28;;;17.70;99.90;;;;;;5056517;28;20520;-74
2022/07/23 07:30:38;;;;;;;0.68;0.30;;;17.60;99.90;;;;;;5041360;28;20123;-74
2022/07/23 07:33:04;;;;;;;1.55;0.47;;;17.50;99.90;;;;;;5040778;28;20549;-74
2022/07/23 07:35:32;;;;;;;0.88;0.45;;;17.40;99.90;;;;;;5054521;28;20254;-74
2022/07/23 07:37:58;;;;;;;0.65;0.28;;;17.30;99.90;;;;;;5042464;28;20422;-74
2022/07/23 07:40:23;;;;;;;0.65;0.15;;;17.30;99.90;;;;;;5056603;28;20041;-74
2022/07/23 07:42:51;;;;;;;1.70;0.47;;;17.30;99.90;;;;;;5057836;28;20044;-74
2022/07/23 07:45:19;;;;;;;0.90;0.20;;;17.40;99.90;;;;;;5037304;28;20041;-74
2022/07/23 07:47:45;;;;;;;3.47;0.60;;;17.40;99.90;;;;;;5049711;28;20040;-74
2022/07/23 07:50:10;;;;;;;0.43;0.30;;;17.50;99.90;;;;;;5057339;28;20379;-74
2022/07/23 07:52:36;;;;;;;0.20;0.13;;;17.60;99.90;;;;;;5054556;28;20040;-74
2022/07/23 07:55:06;;;;;;;0.75;0.40;;;17.60;99.90;;;;;;5040554;28;20033;-74
2022/07/23 07:57:32;;;;;;;0.30;0.10;;;17.50;99.90;;;;;;5040368;28;20465;-74
2022/07/23 07:59:58;;;;;;;0.25;0.25;;;17.60;99.90;;;;;;5038718;28;20067;-74
2022/07/23 08:02:24;;;;;;;0.85;0.43;;;17.60;99.90;;;;;;5042053;28;20495;-74
2022/07/23 08:04:49;;;;;;;0.25;0.20;;;17.50;99.90;;;;;;5043239;28;20041;-74
2022/07/23 08:07:15;;;;;;;0.40;0.20;;;17.40;99.90;;;;;;5038720;28;20052;-74
2022/07/23 08:09:41;;;;;;;1.35;0.13;;;17.30;99.90;;;;;;5053809;28;20044;-74
2022/07/23 08:12:07;;;;;;;0.20;0.13;;;17.30;99.90;;;;;;5041364;28;20405;-74
2022/07/23 08:14:33;;;;;;;0.68;0.20;;;17.30;99.90;;;;;;5038494;28;20094;-73
2022/07/23 08:16:59;;;;;;;1.83;0.30;;;17.30;99.90;;;;;;5038189;28;20041;-74
2022/07/23 08:19:24;;;;;;;0.50;0.20;;;17.40;99.90;;;;;;5042800;28;20029;-74
2022/07/23 08:21:50;;;;;;;0.10;0.10;;;17.40;99.90;;;;;;5021488;28;20040;-74
2022/07/23 08:24:16;;;;;;;0.40;0.30;;;17.50;99.90;;;;;;5037988;28;20056;-74
2022/07/23 08:26:41;;;;;;;0.38;0.20;;;17.60;99.90;;;;;;5040285;28;20322;-74
2022/07/23 08:29:07;;;;;;;1.08;0.20;;;17.60;99.90;;;;;;5040378;28;20321;-74
2022/07/23 08:31:33;;;;;;;0.10;0.10;;;17.50;99.90;;;;;;5032744;28;20025;-74
2022/07/23 08:34:00;;;;;;;0.40;0.30;;;17.50;99.90;;;;;;5038690;28;20296;-74
2022/07/23 08:36:31;;;;;;;0.17;0.10;;;17.60;99.90;;;;;;5031926;28;20045;-74
2022/07/23 08:38:59;;;;;;;0.20;0.20;;;17.70;99.80;;;;;;5035090;28;20560;-74
2022/07/23 08:41:24;;;;;;;0.32;0.20;;;17.80;99.70;;;;;;5035336;28;20048;-74
2022/07/23 08:43:51;;;;;;;0.20;0.15;;;17.80;99.70;;;;;;5032983;28;20037;-75
2022/07/23 08:46:19;;;;;;;0.30;0.10;;;17.90;98.90;;;;;;5035343;28;20037;-74
2022/07/23 08:48:48;;;;;;;0.30;0.20;;;17.80;98.70;;;;;;5010639;28;20048;-75
2022/07/23 08:51:15;;;;;;;0.60;0.30;;;17.80;98.60;;;;;;5031701;28;20056;-73
2022/07/23 08:53:41;;;;;;;23.95;3.40;;;17.90;98.60;;;;;;5019694;28;20124;-73
2022/07/23 08:56:09;;;;;;;0.10;0.10;;;17.90;98.60;;;;;;5038211;28;20037;-75
2022/07/23 08:58:34;;;;;;;0.50;0.22;;;17.90;97.80;;;;;;5037538;28;20040;-75
2022/07/23 09:01:01;;;;;;;0.52;0.35;;;17.90;98.20;;;;;;5044746;28;20099;-75
2022/07/23 09:03:35;;;;;;;0.32;0.25;;;17.90;97.90;;;;;;5037919;28;20131;-75
2022/07/23 09:06:01;;;;;;;0.20;0.20;;;18.00;98.20;;;;;;5034706;28;20041;-75
2022/07/23 09:08:41;;;;;;;0.32;0.20;;;18.10;98.50;;;;;;5031197;28;20039;-75
2022/07/23 09:11:08;;;;;;;0.22;0.10;;;18.20;97.40;;;;;;5036539;28;21691;-75
2022/07/23 09:13:43;;;;;;;0.22;0.13;;;18.30;97.90;;;;;;5030952;28;20414;-75
2022/07/23 09:16:19;;;;;;;0.40;0.20;;;18.40;97.40;;;;;;5031284;28;20071;-75
2022/07/23 09:18:48;;;;;;;0.45;0.20;;;18.50;97.60;;;;;;5032208;28;20045;-75
2022/07/23 09:21:31;;;;;;;2.08;0.40;;;18.60;97.80;;;;;;5013708;28;20570;-75
2022/07/23 09:24:05;;;;;;;0.17;0.10;;;18.60;97.10;;;;;;5030999;28;20049;-75
2022/07/23 09:26:32;;;;;;;0.20;0.20;;;18.60;97.20;;;;;;5030484;28;20049;-75
2022/07/23 09:29:07;;;;;;;0.45;0.20;;;18.70;97.40;;;;;;5032449;28;20048;-74
2022/07/23 09:31:53;;;;;;;0.50;0.15;;;18.70;97.50;;;;;;5053507;28;20037;-74
2022/07/23 09:34:24;;;;;;;0.40;0.20;;;18.70;96.80;;;;;;5040495;28;20116;-75
2022/07/23 09:36:55;;;;;;;0.22;0.20;;;18.80;97.70;;;;;;5035466;28;20130;-75
2022/07/23 09:39:27;;;;;;;0.80;0.30;;;18.90;97.10;;;;;;5031583;28;21729;-74
2022/07/23 09:41:52;;;;;;;0.40;0.20;;;18.90;96.60;;;;;;5039325;28;20045;-75
2022/07/23 09:44:19;;;;;;;0.45;0.35;;;19.00;97.00;;;;;;5032077;28;20040;-75
2022/07/23 09:46:47;;;;;;;0.20;0.10;;;19.00;96.30;;;;;;5032091;28;20037;-75
2022/07/23 09:49:16;;;;;;;0.43;0.20;;;19.00;96.30;;;;;;5036377;28;20116;-75
2022/07/23 09:51:51;;;;;;;0.20;0.10;;;19.10;96.40;;;;;;5013126;28;20514;-75
2022/07/23 09:54:27;;;;;;;0.80;0.20;;;19.10;95.50;;;;;;5037710;28;20395;-75
2022/07/23 09:56:54;;;;;;;0.47;0.25;;;19.10;95.50;;;;;;5037091;28;20400;-75
2022/07/23 09:59:30;;;;;;;0.88;0.35;;;19.20;96.00;;;;;;5035241;28;20036;-74
2022/07/23 10:01:58;;;;;;;1.58;0.45;;;19.10;96.40;;;;;;5035993;28;20043;-74
2022/07/23 10:04:26;;;;;;;0.20;0.20;;;19.20;96.80;;;;;;5031721;28;20033;-73
2022/07/23 10:06:54;;;;;;;0.47;0.20;;;19.10;96.60;;;;;;5035543;28;20068;-74
2022/07/23 10:09:24;;;;;;;0.40;0.20;;;19.10;96.30;;;;;;5031828;28;20041;-74
2022/07/23 10:11:51;;;;;;;0.60;0.35;;;19.10;96.10;;;;;;5034277;28;20124;-74
2022/07/23 10:14:18;;;;;;;0.20;0.10;;;19.10;96.60;;;;;;5034596;28;20775;-74
2022/07/23 10:16:44;;;;;;;0.47;0.30;;;19.10;96.70;;;;;;5040036;28;20048;-74
2022/07/23 10:19:09;;;;;;;0.30;0.28;;;19.20;96.80;;;;;;5045895;28;20041;-74
2022/07/23 10:21:46;;;;;;;0.95;0.20;;;19.40;96.50;;;;;;5034033;28;20410;-74
2022/07/23 10:24:30;;;;;;;0.45;0.28;;;19.50;95.20;;;;;;5035210;28;20204;-74
2022/07/23 10:27:20;;;;;;;0.32;0.20;;;19.50;95.00;;;;;;5034820;28;20037;-74
2022/07/23 10:29:58;;;;;;;0.57;0.28;;;19.40;94.70;;;;;;5039032;28;20049;-74
2022/07/23 10:32:43;;;;;;;0.20;0.10;;;19.30;95.20;;;;;;5038194;28;20398;-74
2022/07/23 10:35:23;;;;;;;1.20;0.35;;;19.30;95.80;;;;;;5055448;28;20052;-74
2022/07/23 10:37:54;;;;;;;0.22;0.17;;;19.40;96.00;;;;;;5038065;28;20491;-74
2022/07/23 10:40:22;;;;;;;0.45;0.38;;;19.30;96.20;;;;;;5039376;28;20036;-69
2022/07/23 10:42:55;;;;;;;0.10;0.10;;;19.40;96.20;;;;;;5039726;28;20028;-73
2022/07/23 10:45:26;;;;;;;0.73;0.20;;;19.40;96.00;;;;;;5040073;28;20103;-74
2022/07/23 10:47:52;;;;;;;0.43;0.20;;;19.40;95.90;;;;;;5052551;28;21710;-74
2022/07/23 10:50:20;;;;;;;0.57;0.20;;;19.50;95.90;;;;;;5040660;28;20055;-74
2022/07/23 10:53:13;;;;;;;0.63;0.35;;;19.50;96.10;;;;;;5033655;28;20079;-74
2022/07/23 10:55:41;;;;;;;0.17;0.17;;;19.60;93.80;;;;;;5035877;28;20052;-74
2022/07/23 10:58:08;;;;;;;0.88;0.30;;;19.60;95.60;;;;;;5037477;28;20033;-74
2022/07/23 11:00:35;;;;;;;0.93;0.40;;;19.70;95.60;;;;;;5041379;28;20043;-74
2022/07/23 11:03:07;;;;;;;0.60;0.30;;;19.70;95.40;;;;;;5039288;28;20037;-74
2022/07/23 11:05:44;;;;;;;0.80;0.40;;;19.80;95.40;;;;;;5035354;28;20402;-74
2022/07/23 11:08:19;;;;;;;0.43;0.30;;;19.80;94.00;;;;;;5033839;28;20037;-74
2022/07/23 11:10:54;;;;;;;0.70;0.28;;;19.80;95.10;;;;;;5037782;28;20041;-74
2022/07/23 11:13:22;;;;;;;3.23;0.63;;;19.90;94.30;;;;;;5030948;28;20156;-74
2022/07/23 11:16:00;;;;;;;1.08;0.40;;;19.90;94.50;;;;;;5037633;28;20094;-74
2022/07/23 11:18:46;;;;;;;0.95;0.40;;;19.90;93.70;;;;;;5046870;28;20487;-74
2022/07/23 11:21:30;;;;;;;0.35;0.20;;;19.90;93.20;;;;;;5052149;28;20109;-74
2022/07/23 11:24:11;;;;;;;0.93;0.40;;;19.90;93.60;;;;;;5038797;28;20052;-74
2022/07/23 11:26:36;;;;;;;0.38;0.30;;;19.90;93.50;;;;;;5038268;28;20041;-74
2022/07/23 11:29:37;;;;;;;0.82;0.38;;;19.90;94.90;;;;;;5054279;28;20033;-74
2022/07/23 11:32:17;;;;;;;0.68;0.30;;;19.80;93.50;;;;;;5033809;28;20041;-74
2022/07/23 11:34:48;;;;;;;0.68;0.40;;;19.80;94.80;;;;;;5037203;28;20033;-74
2022/07/23 11:37:53;;;;;;;1.17;0.50;;;20.00;95.30;;;;;;5033450;28;21338;-74
2022/07/23 11:40:20;;;;;;;0.80;0.40;;;20.10;93.80;;;;;;4983142;28;20586;-73
2022/07/23 11:42:52;;;;;;;2.10;0.52;;;20.10;94.50;;;;;;4981895;28;20041;-72
2022/07/23 11:45:18;;;;;;;1.48;0.52;;;20.20;94.40;;;;;;5007558;28;20202;-74
2022/07/23 11:47:44;;;;;;;1.20;0.40;;;20.20;94.90;;;;;;5039777;28;20457;-73
2022/07/23 11:50:09;;;;;;;0.60;0.30;;;20.20;94.40;;;;;;5033656;28;20502;-74
2022/07/23 11:52:36;;;;;;;1.27;0.50;;;20.20;95.00;;;;;;5033869;28;20569;-74
2022/07/23 11:55:12;;;;;;;1.10;0.60;;;20.20;94.80;;;;;;5020767;28;20045;-74
2022/07/23 11:57:40;;;;;;;1.30;0.50;;;20.20;94.30;;;;;;5034676;28;20056;-74
2022/07/23 12:00:10;;;;;;;1.80;0.65;;;20.30;94.80;;;;;;5041478;28;20460;-74
2022/07/23 12:02:38;;;;;;;1.10;0.50;;;20.20;95.10;;;;;;5032195;28;20509;-74
2022/07/23 12:05:04;;;;;;;0.70;0.50;;;20.30;94.90;;;;;;5019152;28;20040;-74
2022/07/23 12:07:35;;;;;;;0.75;0.40;;;20.30;94.80;;;;;;5018098;28;20048;-74
2022/07/23 12:10:28;;;;;;;1.35;0.47;;;20.30;94.80;;;;;;5036195;28;20052;-74
2022/07/23 12:12:56;;;;;;;0.60;0.30;;;20.40;93.60;;;;;;5035087;28;20440;-74
2022/07/23 12:15:34;;;;;;;0.85;0.50;;;20.60;94.70;;;;;;5022930;28;20049;-74
2022/07/23 12:18:01;;;;;;;0.55;0.40;;;20.70;95.10;;;;;;5053471;28;20041;-74
2022/07/23 12:20:34;;;;;;;1.08;0.50;;;20.80;94.90;;;;;;5037139;28;20123;-74
2022/07/23 12:23:02;;;;;;;0.90;0.50;;;20.90;94.50;;;;;;5052875;28;20474;-74
2022/07/23 12:25:30;;;;;;;1.65;0.60;;;20.90;94.40;;;;;;5035042;28;20021;-73
2022/07/23 12:28:08;;;;;;;1.17;0.50;;;20.80;94.20;;;;;;5037526;28;20045;-74
2022/07/23 12:30:50;;;;;;;2.03;0.70;;;20.70;93.30;;;;;;5039823;28;20179;-74
2022/07/23 12:33:28;;;;;;;1.30;0.50;;;20.60;93.20;;;;;;5018714;28;20494;-74
2022/07/23 12:35:56;;;;;;;1.17;0.57;;;20.50;93.50;;;;;;5032172;28;20455;-74
2022/07/23 12:38:25;;;;;;;0.60;0.43;;;20.50;94.00;;;;;;5034689;28;20045;-74
2022/07/23 12:40:54;;;;;;;1.15;0.70;;;20.50;94.10;;;;;;5038137;28;20049;-74
2022/07/23 12:43:36;;;;;;;0.70;0.60;;;20.50;94.10;;;;;;5034017;28;20029;-73
2022/07/23 12:46:21;;;;;;;0.95;0.50;;;20.40;93.00;;;;;;5018803;28;20036;-74
2022/07/23 12:48:46;;;;;;;1.03;0.57;;;20.40;93.50;;;;;;5034936;28;20532;-74
2022/07/23 12:51:17;;;;;;;1.20;0.43;;;20.30;94.20;;;;;;5035790;28;20037;-74